Montemuro — CSYU4 — position and weather

sailwx.info

Track history (hours):
 
Tides and Currents Weather Stations Pressure Air Temp Water Temp Dewpoint Dewpoint Depression Visibility Wind Speed Wind Dir Waves Ship Positions

Montemuro

Last reported at 2018-Jun-20 10:35 UTC. Time now 2018-Jun-20 13:07 UTC.
Position N 38°42' W 009°10'.

Length 28 m; draft 4.2 m.

Type: Tug. MMSI: 263602560.

Date/timePositionNaut miles runAvg speedWind from/ knotsBaromVisibWave heightAir tempDewpointWater temp
2018-Jun-20 10:35N 38°42' W 009°10'0 0.0
2018-Jun-20 10:04N 38°42' W 009°10'0 0.0
2018-Jun-20 09:54N 38°42' W 009°10'0 0.0
2018-Jun-20 09:26N 38°42' W 009°10'0 0.0
2018-Jun-20 07:33N 38°42' W 009°10'0 0.1
2018-Jun-20 07:27N 38°42' W 009°10'0 0.0
2018-Jun-20 04:32N 38°42' W 009°10'0 0.1
2018-Jun-20 04:28N 38°42' W 009°10'0 0.0
2018-Jun-20 03:55N 38°42' W 009°10'0 0.0
2018-Jun-20 03:19N 38°42' W 009°10'0 0.0
2018-Jun-20 02:45N 38°42' W 009°10'0 0.0
2018-Jun-20 02:22N 38°42' W 009°10'0 0.0
2018-Jun-20 01:51N 38°42' W 009°10'0 0.0
2018-Jun-20 01:22N 38°42' W 009°10'0 0.0
2018-Jun-20 00:51N 38°42' W 009°10'0 0.0
2018-Jun-19 20:45N 38°42' W 009°10'1 0.8
2018-Jun-19 19:27N 38°42' W 009°08'2 3.8
2018-Jun-19 19:00N 38°42' W 009°10'1 0.1
2018-Jun-19 10:10N 38°42' W 009°10'0 0.0
2018-Jun-19 09:59N 38°42' W 009°10'0 0.0
2018-Jun-19 07:21N 38°42' W 009°10'0 0.0
2018-Jun-19 07:00N 38°42' W 009°10'0 0.0
2018-Jun-19 05:58N 38°42' W 009°10'0 0.0
2018-Jun-19 02:07N 38°42' W 009°10'0 0.0
2018-Jun-19 00:10N 38°42' W 009°10'0 0.0
2018-Jun-18 23:58N 38°42' W 009°10'0 0.0
2018-Jun-18 18:57N 38°42' W 009°10'4 8.2
2018-Jun-18 18:30N 38°41' W 009°14'0 0.2
2018-Jun-18 18:00N 38°40' W 009°14'1 2.0
2018-Jun-18 17:30N 38°41' W 009°13'3 0.3
2018-Jun-18 08:50N 38°42' W 009°10'0 0.0
2018-Jun-18 06:19N 38°42' W 009°10'0 0.0
2018-Jun-18 03:13N 38°42' W 009°10'0 0.0
2018-Jun-18 02:59N 38°42' W 009°10'0 0.0
2018-Jun-18 02:24N 38°42' W 009°10'0 0.0
2018-Jun-18 01:03N 38°42' W 009°10'0 0.0
2018-Jun-18 00:44N 38°42' W 009°10'0 0.0
2018-Jun-18 00:30N 38°42' W 009°10'0 0.0
2018-Jun-17 22:59N 38°42' W 009°10'0 0.0
2018-Jun-17 22:07N 38°42' W 009°10'0 0.0
2018-Jun-17 20:54N 38°42' W 009°10'0 0.0
2018-Jun-17 13:33N 38°42' W 009°10'0 0.0
2018-Jun-17 13:21N 38°42' W 009°10'0 0.0
2018-Jun-17 12:55N 38°42' W 009°10'0 0.0
2018-Jun-17 12:29N 38°42' W 009°10'0 0.0
2018-Jun-17 11:50N 38°42' W 009°10'0 0.0
2018-Jun-17 11:20N 38°42' W 009°10'0 0.0
2018-Jun-17 10:25N 38°42' W 009°10'0 0.0
2018-Jun-17 09:57N 38°42' W 009°10'0 0.0
2018-Jun-17 09:29N 38°42' W 009°10'0 0.0
2018-Jun-16 21:40N 38°42' W 009°10'0 0.0
2018-Jun-16 17:06N 38°42' W 009°10'0 0.0
2018-Jun-16 16:59N 38°42' W 009°10'0 0.0
2018-Jun-16 16:25N 38°42' W 009°10'0 0.0
2018-Jun-16 15:23N 38°42' W 009°10'0 0.0
2018-Jun-16 13:15N 38°42' W 009°10'0 0.0
2018-Jun-16 12:57N 38°42' W 009°10'0 0.0
2018-Jun-16 12:27N 38°42' W 009°10'0 0.0
2018-Jun-16 11:59N 38°42' W 009°10'0 0.0
2018-Jun-16 11:28N 38°42' W 009°10'0 0.0
2018-Jun-16 10:59N 38°42' W 009°10'0 0.0
2018-Jun-16 10:29N 38°42' W 009°10'0 0.0
2018-Jun-16 09:49N 38°42' W 009°10'0 0.0
2018-Jun-16 08:56N 38°42' W 009°10'0 0.0
2018-Jun-16 08:27N 38°42' W 009°10'0 0.0
2018-Jun-16 07:58N 38°42' W 009°10'0 0.0
2018-Jun-16 07:22N 38°42' W 009°10'0 0.0
2018-Jun-16 05:42N 38°42' W 009°10'0 0.0
2018-Jun-16 05:23N 38°42' W 009°10'0 0.0
2018-Jun-16 05:00N 38°42' W 009°10'0 0.0
2018-Jun-16 04:30N 38°42' W 009°10'0 0.0
2018-Jun-16 01:23N 38°42' W 009°10'0 0.0
2018-Jun-16 00:46N 38°42' W 009°10'0 0.0
2018-Jun-15 22:53N 38°42' W 009°10'0 0.0
2018-Jun-15 22:23N 38°42' W 009°10'0 0.0
2018-Jun-15 21:14N 38°42' W 009°10'0 0.0
2018-Jun-15 20:50N 38°42' W 009°10'0 0.0
2018-Jun-15 19:44N 38°42' W 009°10'0 0.0
2018-Jun-15 19:25N 38°42' W 009°10'0 0.0
2018-Jun-15 19:00N 38°42' W 009°10'0 0.0
2018-Jun-15 18:18N 38°42' W 009°10'0 0.0
2018-Jun-15 17:48N 38°42' W 009°10'0 0.0
2018-Jun-15 15:51N 38°42' W 009°10'0 0.0
2018-Jun-15 15:05N 38°42' W 009°10'0 0.0
2018-Jun-15 14:39N 38°42' W 009°10'0 0.0
2018-Jun-15 14:22N 38°42' W 009°10'0 0.0
2018-Jun-15 13:29N 38°42' W 009°10'0 0.0
2018-Jun-15 12:59N 38°42' W 009°10'0 0.0
2018-Jun-15 12:29N 38°42' W 009°10'0 0.0
2018-Jun-15 11:50N 38°42' W 009°10'0 0.0
2018-Jun-15 11:31N 38°42' W 009°10'0 0.0
2018-Jun-15 11:00N 38°42' W 009°10'0 0.0
2018-Jun-15 10:28N 38°42' W 009°10'0 0.0
2018-Jun-15 09:53N 38°42' W 009°10'0 0.0
2018-Jun-15 09:30N 38°42' W 009°10'0 0.0
2018-Jun-15 08:58N 38°42' W 009°10'0 0.0
2018-Jun-15 08:30N 38°42' W 009°10'0 0.0
2018-Jun-15 07:58N 38°42' W 009°10'0 0.0
2018-Jun-15 07:31N 38°42' W 009°10'0 0.0
2018-Jun-15 07:00N 38°42' W 009°10'0 0.0
2018-Jun-15 06:31N 38°42' W 009°10'0 0.0
2018-Jun-15 05:51N 38°42' W 009°10'0 0.0
2018-Jun-15 05:07N 38°42' W 009°10'0 1.3
2018-Jun-15 04:47N 38°42' W 009°10'3 9.9
2018-Jun-15 04:30N 38°41' W 009°13'1 1.6
2018-Jun-15 04:00N 38°41' W 009°14'0 0.3
2018-Jun-15 03:30N 38°41' W 009°14'1 2.3
2018-Jun-15 03:00N 38°41' W 009°16'1 1.2
2018-Jun-15 02:29N 38°41' W 009°15'2 4.9
2018-Jun-15 02:01N 38°41' W 009°12'2 3.5
2018-Jun-15 01:26N 38°42' W 009°10'0 0.0
2018-Jun-15 01:01N 38°42' W 009°10'0 0.0
2018-Jun-14 23:44N 38°42' W 009°10'0 0.0
2018-Jun-14 22:47N 38°42' W 009°10'0 0.0
2018-Jun-14 22:28N 38°42' W 009°10'0 0.0
2018-Jun-14 21:58N 38°42' W 009°10'0 0.0
2018-Jun-14 21:28N 38°42' W 009°10'0 0.0
2018-Jun-14 20:44N 38°42' W 009°10'0 0.0
2018-Jun-14 20:23N 38°42' W 009°10'0 0.0
2018-Jun-14 19:58N 38°42' W 009°10'0 0.0
2018-Jun-14 19:26N 38°42' W 009°10'0 0.0
2018-Jun-14 18:45N 38°42' W 009°10'0 0.0
2018-Jun-14 17:17N 38°42' W 009°10'0 0.0
2018-Jun-14 14:17N 38°42' W 009°10'0 0.0
2018-Jun-14 14:00N 38°42' W 009°10'0 0.0
2018-Jun-14 13:24N 38°42' W 009°10'0 0.0
2018-Jun-14 12:58N 38°42' W 009°10'0 0.0
2018-Jun-14 12:23N 38°42' W 009°10'1 1.4
2018-Jun-14 11:53N 38°42' W 009°10'0 0.0
2018-Jun-14 11:30N 38°42' W 009°10'0 0.1
2018-Jun-14 11:00N 38°42' W 009°10'1 1.7
2018-Jun-14 10:30N 38°41' W 009°11'0 1.0
2018-Jun-14 10:00N 38°41' W 009°12'0 0.5
2018-Jun-14 09:30N 38°42' W 009°11'1 2.0
2018-Jun-14 09:00N 38°42' W 009°10'1 0.6
2018-Jun-14 08:06N 38°42' W 009°10'0 0.0
2018-Jun-14 07:53N 38°42' W 009°10'0 0.0
2018-Jun-14 06:21N 38°42' W 009°10'0 0.0
2018-Jun-14 01:56N 38°42' W 009°10'0 0.0
2018-Jun-14 01:28N 38°42' W 009°10'0 0.0
2018-Jun-14 00:31N 38°42' W 009°10'0 0.0
2018-Jun-13 23:55N 38°42' W 009°10'0 0.0
2018-Jun-13 23:30N 38°42' W 009°10'0 0.0
2018-Jun-13 22:21N 38°42' W 009°10'0 0.0
2018-Jun-13 21:55N 38°42' W 009°10'0 0.0
2018-Jun-13 21:28N 38°42' W 009°10'0 0.0
2018-Jun-13 20:59N 38°42' W 009°10'0 0.0
2018-Jun-13 20:30N 38°42' W 009°10'0 0.0
2018-Jun-13 19:20N 38°42' W 009°10'0 0.0
2018-Jun-13 18:51N 38°42' W 009°10'0 0.0
2018-Jun-13 18:27N 38°42' W 009°10'0 0.0
2018-Jun-13 17:58N 38°42' W 009°10'0 0.0
2018-Jun-13 16:42N 38°42' W 009°10'0 0.0
2018-Jun-13 15:05N 38°42' W 009°10'0 0.0
2018-Jun-13 14:43N 38°42' W 009°10'1 3.2
2018-Jun-13 14:28N 38°42' W 009°09'4 8.6
2018-Jun-13 14:00N 38°41' W 009°04'1 1.6
2018-Jun-13 13:26N 38°41' W 009°05'3 7.1
2018-Jun-13 12:59N 38°42' W 009°09'1 2.1
2018-Jun-13 12:30N 38°42' W 009°10'1 0.1
2018-Jun-13 07:57N 38°42' W 009°10'0 0.0
2018-Jun-13 07:15N 38°42' W 009°10'0 0.0
2018-Jun-13 06:54N 38°42' W 009°10'0 0.0
2018-Jun-13 06:27N 38°42' W 009°10'0 0.0
2018-Jun-12 21:49N 38°42' W 009°10'0 0.0
2018-Jun-12 20:09N 38°42' W 009°10'0 0.0
2018-Jun-12 19:53N 38°42' W 009°10'0 0.0
2018-Jun-12 18:10N 38°42' W 009°10'0 0.0
2018-Jun-12 17:56N 38°42' W 009°10'0 0.0
2018-Jun-12 17:30N 38°42' W 009°10'0 0.0
2018-Jun-12 15:41N 38°42' W 009°10'0 0.0
2018-Jun-12 15:29N 38°42' W 009°10'0 0.0
2018-Jun-12 14:59N 38°42' W 009°10'0 0.0
2018-Jun-12 14:26N 38°42' W 009°10'0 0.0
2018-Jun-12 13:54N 38°42' W 009°10'0 0.0
2018-Jun-12 13:26N 38°42' W 009°10'0 0.0
2018-Jun-12 13:00N 38°42' W 009°10'0 0.3
2018-Jun-12 12:29N 38°42' W 009°10'0 0.0
2018-Jun-12 12:00N 38°42' W 009°10'0 0.0
2018-Jun-12 11:30N 38°42' W 009°10'0 0.0
2018-Jun-12 10:59N 38°42' W 009°10'0 0.0
2018-Jun-12 10:30N 38°42' W 009°10'0 0.0
2018-Jun-12 10:00N 38°42' W 009°10'0 0.0
2018-Jun-12 09:29N 38°42' W 009°10'0 0.0
2018-Jun-12 08:58N 38°42' W 009°10'0 0.0
2018-Jun-12 08:30N 38°42' W 009°10'0 0.0
2018-Jun-12 08:00N 38°42' W 009°10'0 0.3
2018-Jun-12 07:29N 38°42' W 009°10'0 0.0
2018-Jun-12 07:00N 38°42' W 009°10'0 0.0
2018-Jun-12 06:29N 38°42' W 009°10'0 0.0
2018-Jun-12 06:00N 38°42' W 009°10'0 0.0
2018-Jun-12 05:30N 38°42' W 009°10'0 0.0
2018-Jun-12 05:00N 38°42' W 009°10'0 0.0
2018-Jun-12 04:30N 38°42' W 009°10'0 0.0
2018-Jun-11 23:14N 38°42' W 009°10'0 0.0
2018-Jun-11 22:03N 38°42' W 009°10'0 0.0
2018-Jun-11 21:46N 38°42' W 009°10'0 0.0
2018-Jun-11 21:25N 38°42' W 009°10'0 0.0
2018-Jun-11 20:59N 38°42' W 009°10'0 0.0
2018-Jun-11 20:21N 38°42' W 009°10'0 0.0
2018-Jun-11 19:58N 38°42' W 009°10'0 0.0
2018-Jun-11 19:30N 38°42' W 009°10'0 0.0
2018-Jun-11 19:00N 38°42' W 009°10'0 0.0
2018-Jun-11 18:30N 38°42' W 009°10'0 0.0
2018-Jun-11 18:00N 38°42' W 009°10'0 0.0
2018-Jun-11 17:26N 38°42' W 009°10'0 0.0
2018-Jun-11 16:59N 38°42' W 009°10'0 0.0
2018-Jun-11 07:32N 38°42' W 009°10'0 0.2
2018-Jun-11 07:30N 38°42' W 009°10'0 0.0
2018-Jun-11 04:44N 38°42' W 009°10'0 0.0
2018-Jun-11 04:30N 38°42' W 009°10'0 0.0
2018-Jun-11 03:57N 38°42' W 009°10'0 0.0
2018-Jun-11 02:57N 38°42' W 009°10'0 0.0
2018-Jun-11 02:19N 38°42' W 009°10'0 0.0
2018-Jun-11 01:52N 38°42' W 009°10'0 0.0
2018-Jun-11 01:08N 38°42' W 009°10'0 0.0
2018-Jun-11 01:00N 38°42' W 009°10'0 0.0
2018-Jun-11 00:30N 38°42' W 009°10'0 0.0
2018-Jun-11 00:00N 38°42' W 009°10'0 0.0
2018-Jun-10 23:30N 38°42' W 009°10'0 0.0
2018-Jun-10 23:00N 38°42' W 009°10'0 0.0
2018-Jun-10 22:28N 38°42' W 009°10'0 0.0
2018-Jun-10 21:13N 38°42' W 009°10'0 0.0
2018-Jun-10 20:45N 38°42' W 009°10'0 0.0
2018-Jun-10 20:17N 38°42' W 009°10'0 0.0
2018-Jun-10 17:49N 38°42' W 009°10'0 0.0
2018-Jun-10 15:57N 38°42' W 009°10'0 0.0
2018-Jun-10 13:34N 38°42' W 009°10'0 0.0
2018-Jun-10 13:12N 38°42' W 009°10'0 0.0
2018-Jun-10 12:46N 38°42' W 009°10'0 0.0
2018-Jun-10 12:22N 38°42' W 009°10'0 0.0
2018-Jun-10 10:43N 38°42' W 009°10'  
Track history (hours):
 
Tides and Currents Weather Stations Pressure Air Temp Water Temp Dewpoint Dewpoint Depression Visibility Wind Speed Wind Dir Waves Ship Positions

Montemuro

Last reported at 2018-Jun-20 10:35 UTC. Time now 2018-Jun-20 13:07 UTC.
Position N 38°42' W 009°10'.

Length 28 m; draft 4.2 m.

Type: Tug. MMSI: 263602560.

Date/timePositionNaut miles runAvg speedWind from/ knotsBaromVisibWave heightAir tempDewpointWater temp
2018-Jun-20 10:35N 38°42' W 009°10'0 0.0
2018-Jun-20 10:04N 38°42' W 009°10'0 0.0
2018-Jun-20 09:54N 38°42' W 009°10'0 0.0
2018-Jun-20 09:26N 38°42' W 009°10'0 0.0
2018-Jun-20 07:33N 38°42' W 009°10'0 0.1
2018-Jun-20 07:27N 38°42' W 009°10'0 0.0
2018-Jun-20 04:32N 38°42' W 009°10'0 0.1
2018-Jun-20 04:28N 38°42' W 009°10'0 0.0
2018-Jun-20 03:55N 38°42' W 009°10'0 0.0
2018-Jun-20 03:19N 38°42' W 009°10'0 0.0
2018-Jun-20 02:45N 38°42' W 009°10'0 0.0
2018-Jun-20 02:22N 38°42' W 009°10'0 0.0
2018-Jun-20 01:51N 38°42' W 009°10'0 0.0
2018-Jun-20 01:22N 38°42' W 009°10'0 0.0
2018-Jun-20 00:51N 38°42' W 009°10'0 0.0
2018-Jun-19 20:45N 38°42' W 009°10'1 0.8
2018-Jun-19 19:27N 38°42' W 009°08'2 3.8
2018-Jun-19 19:00N 38°42' W 009°10'1 0.1
2018-Jun-19 10:10N 38°42' W 009°10'0 0.0
2018-Jun-19 09:59N 38°42' W 009°10'0 0.0
2018-Jun-19 07:21N 38°42' W 009°10'0 0.0
2018-Jun-19 07:00N 38°42' W 009°10'0 0.0
2018-Jun-19 05:58N 38°42' W 009°10'0 0.0
2018-Jun-19 02:07N 38°42' W 009°10'0 0.0
2018-Jun-19 00:10N 38°42' W 009°10'0 0.0
2018-Jun-18 23:58N 38°42' W 009°10'0 0.0
2018-Jun-18 18:57N 38°42' W 009°10'4 8.2
2018-Jun-18 18:30N 38°41' W 009°14'0 0.2
2018-Jun-18 18:00N 38°40' W 009°14'1 2.0
2018-Jun-18 17:30N 38°41' W 009°13'3 0.3
2018-Jun-18 08:50N 38°42' W 009°10'0 0.0
2018-Jun-18 06:19N 38°42' W 009°10'0 0.0
2018-Jun-18 03:13N 38°42' W 009°10'0 0.0
2018-Jun-18 02:59N 38°42' W 009°10'0 0.0
2018-Jun-18 02:24N 38°42' W 009°10'0 0.0
2018-Jun-18 01:03N 38°42' W 009°10'0 0.0
2018-Jun-18 00:44N 38°42' W 009°10'0 0.0
2018-Jun-18 00:30N 38°42' W 009°10'0 0.0
2018-Jun-17 22:59N 38°42' W 009°10'0 0.0
2018-Jun-17 22:07N 38°42' W 009°10'0 0.0
2018-Jun-17 20:54N 38°42' W 009°10'0 0.0
2018-Jun-17 13:33N 38°42' W 009°10'0 0.0
2018-Jun-17 13:21N 38°42' W 009°10'0 0.0
2018-Jun-17 12:55N 38°42' W 009°10'0 0.0
2018-Jun-17 12:29N 38°42' W 009°10'0 0.0
2018-Jun-17 11:50N 38°42' W 009°10'0 0.0
2018-Jun-17 11:20N 38°42' W 009°10'0 0.0
2018-Jun-17 10:25N 38°42' W 009°10'0 0.0
2018-Jun-17 09:57N 38°42' W 009°10'0 0.0
2018-Jun-17 09:29N 38°42' W 009°10'0 0.0
2018-Jun-16 21:40N 38°42' W 009°10'0 0.0
2018-Jun-16 17:06N 38°42' W 009°10'0 0.0
2018-Jun-16 16:59N 38°42' W 009°10'0 0.0
2018-Jun-16 16:25N 38°42' W 009°10'0 0.0
2018-Jun-16 15:23N 38°42' W 009°10'0 0.0
2018-Jun-16 13:15N 38°42' W 009°10'0 0.0
2018-Jun-16 12:57N 38°42' W 009°10'0 0.0
2018-Jun-16 12:27N 38°42' W 009°10'0 0.0
2018-Jun-16 11:59N 38°42' W 009°10'0 0.0
2018-Jun-16 11:28N 38°42' W 009°10'0 0.0
2018-Jun-16 10:59N 38°42' W 009°10'0 0.0
2018-Jun-16 10:29N 38°42' W 009°10'0 0.0
2018-Jun-16 09:49N 38°42' W 009°10'0 0.0
2018-Jun-16 08:56N 38°42' W 009°10'0 0.0
2018-Jun-16 08:27N 38°42' W 009°10'0 0.0
2018-Jun-16 07:58N 38°42' W 009°10'0 0.0
2018-Jun-16 07:22N 38°42' W 009°10'0 0.0
2018-Jun-16 05:42N 38°42' W 009°10'0 0.0
2018-Jun-16 05:23N 38°42' W 009°10'0 0.0
2018-Jun-16 05:00N 38°42' W 009°10'0 0.0
2018-Jun-16 04:30N 38°42' W 009°10'0 0.0
2018-Jun-16 01:23N 38°42' W 009°10'0 0.0
2018-Jun-16 00:46N 38°42' W 009°10'0 0.0
2018-Jun-15 22:53N 38°42' W 009°10'0 0.0
2018-Jun-15 22:23N 38°42' W 009°10'0 0.0
2018-Jun-15 21:14N 38°42' W 009°10'0 0.0
2018-Jun-15 20:50N 38°42' W 009°10'0 0.0
2018-Jun-15 19:44N 38°42' W 009°10'0 0.0
2018-Jun-15 19:25N 38°42' W 009°10'0 0.0
2018-Jun-15 19:00N 38°42' W 009°10'0 0.0
2018-Jun-15 18:18N 38°42' W 009°10'0 0.0
2018-Jun-15 17:48N 38°42' W 009°10'0 0.0
2018-Jun-15 15:51N 38°42' W 009°10'0 0.0
2018-Jun-15 15:05N 38°42' W 009°10'0 0.0
2018-Jun-15 14:39N 38°42' W 009°10'0 0.0
2018-Jun-15 14:22N 38°42' W 009°10'0 0.0
2018-Jun-15 13:29N 38°42' W 009°10'0 0.0
2018-Jun-15 12:59N 38°42' W 009°10'0 0.0
2018-Jun-15 12:29N 38°42' W 009°10'0 0.0
2018-Jun-15 11:50N 38°42' W 009°10'0 0.0
2018-Jun-15 11:31N 38°42' W 009°10'0 0.0
2018-Jun-15 11:00N 38°42' W 009°10'0 0.0
2018-Jun-15 10:28N 38°42' W 009°10'0 0.0
2018-Jun-15 09:53N 38°42' W 009°10'0 0.0
2018-Jun-15 09:30N 38°42' W 009°10'0 0.0
2018-Jun-15 08:58N 38°42' W 009°10'0 0.0
2018-Jun-15 08:30N 38°42' W 009°10'0 0.0
2018-Jun-15 07:58N 38°42' W 009°10'0 0.0
2018-Jun-15 07:31N 38°42' W 009°10'0 0.0
2018-Jun-15 07:00N 38°42' W 009°10'0 0.0
2018-Jun-15 06:31N 38°42' W 009°10'0 0.0
2018-Jun-15 05:51N 38°42' W 009°10'0 0.0
2018-Jun-15 05:07N 38°42' W 009°10'0 1.3
2018-Jun-15 04:47N 38°42' W 009°10'3 9.9
2018-Jun-15 04:30N 38°41' W 009°13'1 1.6
2018-Jun-15 04:00N 38°41' W 009°14'0 0.3
2018-Jun-15 03:30N 38°41' W 009°14'1 2.3
2018-Jun-15 03:00N 38°41' W 009°16'1 1.2
2018-Jun-15 02:29N 38°41' W 009°15'2 4.9
2018-Jun-15 02:01N 38°41' W 009°12'2 3.5
2018-Jun-15 01:26N 38°42' W 009°10'0 0.0
2018-Jun-15 01:01N 38°42' W 009°10'0 0.0
2018-Jun-14 23:44N 38°42' W 009°10'0 0.0
2018-Jun-14 22:47N 38°42' W 009°10'0 0.0
2018-Jun-14 22:28N 38°42' W 009°10'0 0.0
2018-Jun-14 21:58N 38°42' W 009°10'0 0.0
2018-Jun-14 21:28N 38°42' W 009°10'0 0.0
2018-Jun-14 20:44N 38°42' W 009°10'0 0.0
2018-Jun-14 20:23N 38°42' W 009°10'0 0.0
2018-Jun-14 19:58N 38°42' W 009°10'0 0.0
2018-Jun-14 19:26N 38°42' W 009°10'0 0.0
2018-Jun-14 18:45N 38°42' W 009°10'0 0.0
2018-Jun-14 17:17N 38°42' W 009°10'0 0.0
2018-Jun-14 14:17N 38°42' W 009°10'0 0.0
2018-Jun-14 14:00N 38°42' W 009°10'0 0.0
2018-Jun-14 13:24N 38°42' W 009°10'0 0.0
2018-Jun-14 12:58N 38°42' W 009°10'0 0.0
2018-Jun-14 12:23N 38°42' W 009°10'1 1.4
2018-Jun-14 11:53N 38°42' W 009°10'0 0.0
2018-Jun-14 11:30N 38°42' W 009°10'0 0.1
2018-Jun-14 11:00N 38°42' W 009°10'1 1.7
2018-Jun-14 10:30N 38°41' W 009°11'0 1.0
2018-Jun-14 10:00N 38°41' W 009°12'0 0.5
2018-Jun-14 09:30N 38°42' W 009°11'1 2.0
2018-Jun-14 09:00N 38°42' W 009°10'1 0.6
2018-Jun-14 08:06N 38°42' W 009°10'0 0.0
2018-Jun-14 07:53N 38°42' W 009°10'0 0.0
2018-Jun-14 06:21N 38°42' W 009°10'0 0.0
2018-Jun-14 01:56N 38°42' W 009°10'0 0.0
2018-Jun-14 01:28N 38°42' W 009°10'0 0.0
2018-Jun-14 00:31N 38°42' W 009°10'0 0.0
2018-Jun-13 23:55N 38°42' W 009°10'0 0.0
2018-Jun-13 23:30N 38°42' W 009°10'0 0.0
2018-Jun-13 22:21N 38°42' W 009°10'0 0.0
2018-Jun-13 21:55N 38°42' W 009°10'0 0.0
2018-Jun-13 21:28N 38°42' W 009°10'0 0.0
2018-Jun-13 20:59N 38°42' W 009°10'0 0.0
2018-Jun-13 20:30N 38°42' W 009°10'0 0.0
2018-Jun-13 19:20N 38°42' W 009°10'0 0.0
2018-Jun-13 18:51N 38°42' W 009°10'0 0.0
2018-Jun-13 18:27N 38°42' W 009°10'0 0.0
2018-Jun-13 17:58N 38°42' W 009°10'0 0.0
2018-Jun-13 16:42N 38°42' W 009°10'0 0.0
2018-Jun-13 15:05N 38°42' W 009°10'0 0.0
2018-Jun-13 14:43N 38°42' W 009°10'1 3.2
2018-Jun-13 14:28N 38°42' W 009°09'4 8.6
2018-Jun-13 14:00N 38°41' W 009°04'1 1.6
2018-Jun-13 13:26N 38°41' W 009°05'3 7.1
2018-Jun-13 12:59N 38°42' W 009°09'1 2.1
2018-Jun-13 12:30N 38°42' W 009°10'1 0.1
2018-Jun-13 07:57N 38°42' W 009°10'0 0.0
2018-Jun-13 07:15N 38°42' W 009°10'0 0.0
2018-Jun-13 06:54N 38°42' W 009°10'0 0.0
2018-Jun-13 06:27N 38°42' W 009°10'0 0.0
2018-Jun-12 21:49N 38°42' W 009°10'0 0.0
2018-Jun-12 20:09N 38°42' W 009°10'0 0.0
2018-Jun-12 19:53N 38°42' W 009°10'0 0.0
2018-Jun-12 18:10N 38°42' W 009°10'0 0.0
2018-Jun-12 17:56N 38°42' W 009°10'0 0.0
2018-Jun-12 17:30N 38°42' W 009°10'0 0.0
2018-Jun-12 15:41N 38°42' W 009°10'0 0.0
2018-Jun-12 15:29N 38°42' W 009°10'0 0.0
2018-Jun-12 14:59N 38°42' W 009°10'0 0.0
2018-Jun-12 14:26N 38°42' W 009°10'0 0.0
2018-Jun-12 13:54N 38°42' W 009°10'0 0.0
2018-Jun-12 13:26N 38°42' W 009°10'0 0.0
2018-Jun-12 13:00N 38°42' W 009°10'0 0.3
2018-Jun-12 12:29N 38°42' W 009°10'0 0.0
2018-Jun-12 12:00N 38°42' W 009°10'0 0.0
2018-Jun-12 11:30N 38°42' W 009°10'0 0.0
2018-Jun-12 10:59N 38°42' W 009°10'0 0.0
2018-Jun-12 10:30N 38°42' W 009°10'0 0.0
2018-Jun-12 10:00N 38°42' W 009°10'0 0.0
2018-Jun-12 09:29N 38°42' W 009°10'0 0.0
2018-Jun-12 08:58N 38°42' W 009°10'0 0.0
2018-Jun-12 08:30N 38°42' W 009°10'0 0.0
2018-Jun-12 08:00N 38°42' W 009°10'0 0.3
2018-Jun-12 07:29N 38°42' W 009°10'0 0.0
2018-Jun-12 07:00N 38°42' W 009°10'0 0.0
2018-Jun-12 06:29N 38°42' W 009°10'0 0.0
2018-Jun-12 06:00N 38°42' W 009°10'0 0.0
2018-Jun-12 05:30N 38°42' W 009°10'0 0.0
2018-Jun-12 05:00N 38°42' W 009°10'0 0.0
2018-Jun-12 04:30N 38°42' W 009°10'0 0.0
2018-Jun-11 23:14N 38°42' W 009°10'0 0.0
2018-Jun-11 22:03N 38°42' W 009°10'0 0.0
2018-Jun-11 21:46N 38°42' W 009°10'0 0.0
2018-Jun-11 21:25N 38°42' W 009°10'0 0.0
2018-Jun-11 20:59N 38°42' W 009°10'0 0.0
2018-Jun-11 20:21N 38°42' W 009°10'0 0.0
2018-Jun-11 19:58N 38°42' W 009°10'0 0.0
2018-Jun-11 19:30N 38°42' W 009°10'0 0.0
2018-Jun-11 19:00N 38°42' W 009°10'0 0.0
2018-Jun-11 18:30N 38°42' W 009°10'0 0.0
2018-Jun-11 18:00N 38°42' W 009°10'0 0.0
2018-Jun-11 17:26N 38°42' W 009°10'0 0.0
2018-Jun-11 16:59N 38°42' W 009°10'0 0.0
2018-Jun-11 07:32N 38°42' W 009°10'0 0.2
2018-Jun-11 07:30N 38°42' W 009°10'0 0.0
2018-Jun-11 04:44N 38°42' W 009°10'0 0.0
2018-Jun-11 04:30N 38°42' W 009°10'0 0.0
2018-Jun-11 03:57N 38°42' W 009°10'0 0.0
2018-Jun-11 02:57N 38°42' W 009°10'0 0.0
2018-Jun-11 02:19N 38°42' W 009°10'0 0.0
2018-Jun-11 01:52N 38°42' W 009°10'0 0.0
2018-Jun-11 01:08N 38°42' W 009°10'0 0.0
2018-Jun-11 01:00N 38°42' W 009°10'0 0.0
2018-Jun-11 00:30N 38°42' W 009°10'0 0.0
2018-Jun-11 00:00N 38°42' W 009°10'0 0.0
2018-Jun-10 23:30N 38°42' W 009°10'0 0.0
2018-Jun-10 23:00N 38°42' W 009°10'0 0.0
2018-Jun-10 22:28N 38°42' W 009°10'0 0.0
2018-Jun-10 21:13N 38°42' W 009°10'0 0.0
2018-Jun-10 20:45N 38°42' W 009°10'0 0.0
2018-Jun-10 20:17N 38°42' W 009°10'0 0.0
2018-Jun-10 17:49N 38°42' W 009°10'0 0.0
2018-Jun-10 15:57N 38°42' W 009°10'0 0.0
2018-Jun-10 13:34N 38°42' W 009°10'0 0.0
2018-Jun-10 13:12N 38°42' W 009°10'0 0.0
2018-Jun-10 12:46N 38°42' W 009°10'0 0.0
2018-Jun-10 12:22N 38°42' W 009°10'0 0.0
2018-Jun-10 10:43N 38°42' W 009°10'  

Dump ship's entire track history